sensor_id;sensor_type;location;lat;lon;timestamp;P1;durP1;ratioP1;P2;durP2;ratioP2
77866;SDS011;67271;59.120;37.970;2023-07-24T00:00:04;3.88;;;2.25;;
77866;SDS011;67271;59.120;37.970;2023-07-24T00:02:46;5.45;;;2.22;;
77866;SDS011;67271;59.120;37.970;2023-07-24T00:05:12;3.92;;;2.20;;
77866;SDS011;67271;59.120;37.970;2023-07-24T00:07:38;4.25;;;2.47;;
77866;SDS011;67271;59.120;37.970;2023-07-24T00:10:04;4.43;;;2.83;;
77866;SDS011;67271;59.120;37.970;2023-07-24T00:12:31;4.88;;;2.45;;
77866;SDS011;67271;59.120;37.970;2023-07-24T00:14:57;3.78;;;2.30;;
77866;SDS011;67271;59.120;37.970;2023-07-24T00:17:23;3.38;;;2.38;;
77866;SDS011;67271;59.120;37.970;2023-07-24T00:19:50;2.83;;;2.33;;
77866;SDS011;67271;59.120;37.970;2023-07-24T00:22:16;3.90;;;2.60;;
77866;SDS011;67271;59.120;37.970;2023-07-24T00:24:42;3.20;;;2.38;;
77866;SDS011;67271;59.120;37.970;2023-07-24T00:27:07;3.15;;;2.50;;
77866;SDS011;67271;59.120;37.970;2023-07-24T00:29:33;3.70;;;2.22;;
77866;SDS011;67271;59.120;37.970;2023-07-24T00:31:59;4.35;;;2.67;;
77866;SDS011;67271;59.120;37.970;2023-07-24T00:34:25;5.13;;;2.40;;
77866;SDS011;67271;59.120;37.970;2023-07-24T00:36:51;3.10;;;2.13;;
77866;SDS011;67271;59.120;37.970;2023-07-24T00:39:17;3.20;;;2.22;;
77866;SDS011;67271;59.120;37.970;2023-07-24T00:41:43;2.65;;;2.15;;
77866;SDS011;67271;59.120;37.970;2023-07-24T00:44:09;3.13;;;1.95;;
77866;SDS011;67271;59.120;37.970;2023-07-24T00:46:35;3.92;;;2.42;;
77866;SDS011;67271;59.120;37.970;2023-07-24T00:49:02;6.20;;;2.72;;
77866;SDS011;67271;59.120;37.970;2023-07-24T00:51:31;3.85;;;2.60;;
77866;SDS011;67271;59.120;37.970;2023-07-24T00:54:00;3.88;;;2.50;;
77866;SDS011;67271;59.120;37.970;2023-07-24T00:56:28;5.03;;;2.50;;
77866;SDS011;67271;59.120;37.970;2023-07-24T00:58:55;4.88;;;2.83;;
77866;SDS011;67271;59.120;37.970;2023-07-24T01:01:22;3.47;;;2.22;;
77866;SDS011;67271;59.120;37.970;2023-07-24T01:03:49;2.95;;;2.13;;
77866;SDS011;67271;59.120;37.970;2023-07-24T01:06:16;3.53;;;2.10;;
77866;SDS011;67271;59.120;37.970;2023-07-24T01:08:42;5.25;;;2.10;;
77866;SDS011;67271;59.120;37.970;2023-07-24T01:11:31;4.15;;;2.53;;
77866;SDS011;67271;59.120;37.970;2023-07-24T01:14:08;2.50;;;1.95;;
77866;SDS011;67271;59.120;37.970;2023-07-24T01:16:40;11.57;;;2.60;;
77866;SDS011;67271;59.120;37.970;2023-07-24T01:19:54;3.97;;;2.58;;
77866;SDS011;67271;59.120;37.970;2023-07-24T01:27:44;3.60;;;2.20;;
77866;SDS011;67271;59.120;37.970;2023-07-24T01:30:11;2.80;;;2.00;;
77866;SDS011;67271;59.120;37.970;2023-07-24T01:32:38;4.55;;;2.15;;
77866;SDS011;67271;59.120;37.970;2023-07-24T01:35:04;4.97;;;2.63;;
77866;SDS011;67271;59.120;37.970;2023-07-24T01:37:31;3.58;;;2.50;;
77866;SDS011;67271;59.120;37.970;2023-07-24T01:39:59;4.72;;;2.25;;
77866;SDS011;67271;59.120;37.970;2023-07-24T01:42:26;5.20;;;2.47;;
77866;SDS011;67271;59.120;37.970;2023-07-24T01:44:53;4.30;;;2.33;;
77866;SDS011;67271;59.120;37.970;2023-07-24T01:47:19;4.93;;;2.25;;
77866;SDS011;67271;59.120;37.970;2023-07-24T01:49:47;2.78;;;2.00;;
77866;SDS011;67271;59.120;37.970;2023-07-24T01:52:13;3.42;;;2.40;;
77866;SDS011;67271;59.120;37.970;2023-07-24T01:54:39;5.40;;;2.50;;
77866;SDS011;67271;59.120;37.970;2023-07-24T01:57:05;3.63;;;2.60;;
77866;SDS011;67271;59.120;37.970;2023-07-24T01:59:31;2.38;;;2.00;;
77866;SDS011;67271;59.120;37.970;2023-07-24T02:01:57;3.70;;;2.78;;
77866;SDS011;67271;59.120;37.970;2023-07-24T02:04:22;3.95;;;2.50;;
77866;SDS011;67271;59.120;37.970;2023-07-24T02:06:49;8.25;;;2.55;;
77866;SDS011;67271;59.120;37.970;2023-07-24T02:09:15;4.53;;;2.42;;
77866;SDS011;67271;59.120;37.970;2023-07-24T02:11:43;5.15;;;2.30;;
77866;SDS011;67271;59.120;37.970;2023-07-24T02:14:09;4.22;;;2.22;;
77866;SDS011;67271;59.120;37.970;2023-07-24T02:16:37;3.45;;;2.30;;
77866;SDS011;67271;59.120;37.970;2023-07-24T02:19:03;4.90;;;2.53;;
77866;SDS011;67271;59.120;37.970;2023-07-24T02:21:30;3.30;;;2.25;;
77866;SDS011;67271;59.120;37.970;2023-07-24T02:23:56;4.60;;;2.88;;
77866;SDS011;67271;59.120;37.970;2023-07-24T02:26:22;3.67;;;2.88;;
77866;SDS011;67271;59.120;37.970;2023-07-24T02:28:48;3.97;;;2.58;;
77866;SDS011;67271;59.120;37.970;2023-07-24T02:31:13;5.43;;;3.72;;
77866;SDS011;67271;59.120;37.970;2023-07-24T02:33:40;4.55;;;3.05;;
77866;SDS011;67271;59.120;37.970;2023-07-24T02:36:05;4.05;;;2.53;;
77866;SDS011;67271;59.120;37.970;2023-07-24T02:38:33;9.75;;;2.72;;
77866;SDS011;67271;59.120;37.970;2023-07-24T02:40:59;2.95;;;2.15;;
77866;SDS011;67271;59.120;37.970;2023-07-24T02:43:25;8.75;;;2.25;;
77866;SDS011;67271;59.120;37.970;2023-07-24T02:45:51;3.65;;;2.60;;
77866;SDS011;67271;59.120;37.970;2023-07-24T02:48:16;3.65;;;2.40;;
77866;SDS011;67271;59.120;37.970;2023-07-24T02:50:42;7.22;;;2.53;;
77866;SDS011;67271;59.120;37.970;2023-07-24T02:53:08;5.80;;;2.50;;
77866;SDS011;67271;59.120;37.970;2023-07-24T02:55:34;3.25;;;2.33;;
77866;SDS011;67271;59.120;37.970;2023-07-24T02:58:03;3.25;;;2.10;;
77866;SDS011;67271;59.120;37.970;2023-07-24T03:00:29;2.65;;;2.00;;
77866;SDS011;67271;59.120;37.970;2023-07-24T03:02:57;5.95;;;2.10;;
77866;SDS011;67271;59.120;37.970;2023-07-24T03:05:23;3.92;;;1.90;;
77866;SDS011;67271;59.120;37.970;2023-07-24T03:07:48;3.10;;;1.90;;
77866;SDS011;67271;59.120;37.970;2023-07-24T03:10:14;3.13;;;1.83;;
77866;SDS011;67271;59.120;37.970;2023-07-24T03:12:40;4.97;;;2.25;;
77866;SDS011;67271;59.120;37.970;2023-07-24T03:15:06;2.72;;;2.03;;
77866;SDS011;67271;59.120;37.970;2023-07-24T03:17:32;4.50;;;2.13;;
77866;SDS011;67271;59.120;37.970;2023-07-24T03:19:59;4.60;;;2.20;;
77866;SDS011;67271;59.120;37.970;2023-07-24T03:22:25;4.07;;;2.88;;
77866;SDS011;67271;59.120;37.970;2023-07-24T03:24:51;3.05;;;1.92;;
77866;SDS011;67271;59.120;37.970;2023-07-24T03:27:16;5.15;;;2.17;;
77866;SDS011;67271;59.120;37.970;2023-07-24T03:29:42;4.55;;;2.08;;
77866;SDS011;67271;59.120;37.970;2023-07-24T03:32:08;2.95;;;1.98;;
77866;SDS011;67271;59.120;37.970;2023-07-24T03:34:34;5.55;;;2.78;;
77866;SDS011;67271;59.120;37.970;2023-07-24T03:37:00;2.92;;;2.30;;
77866;SDS011;67271;59.120;37.970;2023-07-24T03:39:26;6.53;;;1.90;;
77866;SDS011;67271;59.120;37.970;2023-07-24T03:41:52;1.95;;;1.65;;
77866;SDS011;67271;59.120;37.970;2023-07-24T03:44:17;3.53;;;1.88;;
77866;SDS011;67271;59.120;37.970;2023-07-24T03:46:43;3.97;;;2.03;;
77866;SDS011;67271;59.120;37.970;2023-07-24T03:49:09;2.33;;;1.95;;
77866;SDS011;67271;59.120;37.970;2023-07-24T03:51:35;2.72;;;2.00;;
77866;SDS011;67271;59.120;37.970;2023-07-24T03:54:01;2.78;;;1.85;;
77866;SDS011;67271;59.120;37.970;2023-07-24T03:56:26;2.97;;;2.10;;
77866;SDS011;67271;59.120;37.970;2023-07-24T03:58:52;3.20;;;2.05;;
77866;SDS011;67271;59.120;37.970;2023-07-24T04:01:18;2.97;;;1.90;;
77866;SDS011;67271;59.120;37.970;2023-07-24T04:03:44;5.90;;;2.20;;
77866;SDS011;67271;59.120;37.970;2023-07-24T04:06:10;4.13;;;2.70;;
77866;SDS011;67271;59.120;37.970;2023-07-24T04:08:36;3.33;;;2.30;;
77866;SDS011;67271;59.120;37.970;2023-07-24T04:11:02;3.35;;;2.63;;
77866;SDS011;67271;59.120;37.970;2023-07-24T04:13:30;2.67;;;2.03;;
77866;SDS011;67271;59.120;37.970;2023-07-24T04:15:55;6.47;;;2.08;;
77866;SDS011;67271;59.120;37.970;2023-07-24T04:18:22;3.35;;;2.05;;
77866;SDS011;67271;59.120;37.970;2023-07-24T04:20:48;5.43;;;2.17;;
77866;SDS011;67271;59.120;37.970;2023-07-24T04:23:14;2.40;;;1.67;;
77866;SDS011;67271;59.120;37.970;2023-07-24T04:25:40;6.28;;;2.20;;
77866;SDS011;67271;59.120;37.970;2023-07-24T04:28:06;4.93;;;2.10;;
77866;SDS011;67271;59.120;37.970;2023-07-24T04:30:32;2.88;;;2.22;;
77866;SDS011;67271;59.120;37.970;2023-07-24T04:32:58;2.42;;;2.20;;
77866;SDS011;67271;59.120;37.970;2023-07-24T04:35:24;2.50;;;1.80;;
77866;SDS011;67271;59.120;37.970;2023-07-24T04:37:51;3.97;;;2.42;;
77866;SDS011;67271;59.120;37.970;2023-07-24T04:40:17;3.25;;;2.15;;
77866;SDS011;67271;59.120;37.970;2023-07-24T04:42:43;2.45;;;2.10;;
77866;SDS011;67271;59.120;37.970;2023-07-24T04:45:09;2.30;;;1.70;;
77866;SDS011;67271;59.120;37.970;2023-07-24T04:47:35;3.13;;;1.88;;
77866;SDS011;67271;59.120;37.970;2023-07-24T04:50:02;3.55;;;1.92;;
77866;SDS011;67271;59.120;37.970;2023-07-24T04:52:28;2.42;;;1.75;;
77866;SDS011;67271;59.120;37.970;2023-07-24T04:54:54;3.08;;;1.73;;
77866;SDS011;67271;59.120;37.970;2023-07-24T04:57:30;3.53;;;2.03;;
77866;SDS011;67271;59.120;37.970;2023-07-24T04:59:58;5.97;;;1.98;;
77866;SDS011;67271;59.120;37.970;2023-07-24T05:02:26;3.78;;;2.13;;
77866;SDS011;67271;59.120;37.970;2023-07-24T05:04:52;3.55;;;2.20;;
77866;SDS011;67271;59.120;37.970;2023-07-24T05:07:18;5.43;;;1.83;;
77866;SDS011;67271;59.120;37.970;2023-07-24T05:09:44;3.90;;;2.22;;
77866;SDS011;67271;59.120;37.970;2023-07-24T05:12:10;3.70;;;2.30;;
77866;SDS011;67271;59.120;37.970;2023-07-24T05:14:35;5.60;;;2.50;;
77866;SDS011;67271;59.120;37.970;2023-07-24T05:17:01;3.10;;;2.05;;
77866;SDS011;67271;59.120;37.970;2023-07-24T05:19:27;2.65;;;2.00;;
77866;SDS011;67271;59.120;37.970;2023-07-24T05:21:53;5.50;;;2.47;;
77866;SDS011;67271;59.120;37.970;2023-07-24T05:24:19;5.28;;;2.40;;
77866;SDS011;67271;59.120;37.970;2023-07-24T05:26:45;4.13;;;2.28;;
77866;SDS011;67271;59.120;37.970;2023-07-24T05:29:11;3.17;;;2.15;;
77866;SDS011;67271;59.120;37.970;2023-07-24T05:31:36;3.75;;;2.20;;
77866;SDS011;67271;59.120;37.970;2023-07-24T05:34:02;5.18;;;2.17;;
77866;SDS011;67271;59.120;37.970;2023-07-24T05:36:29;3.42;;;2.20;;
77866;SDS011;67271;59.120;37.970;2023-07-24T05:38:55;5.40;;;2.83;;
77866;SDS011;67271;59.120;37.970;2023-07-24T05:41:21;4.10;;;2.20;;
77866;SDS011;67271;59.120;37.970;2023-07-24T05:43:47;4.65;;;2.90;;
77866;SDS011;67271;59.120;37.970;2023-07-24T05:46:13;6.72;;;2.40;;
77866;SDS011;67271;59.120;37.970;2023-07-24T05:48:39;3.10;;;1.92;;
77866;SDS011;67271;59.120;37.970;2023-07-24T05:51:05;4.05;;;2.38;;
77866;SDS011;67271;59.120;37.970;2023-07-24T05:53:30;4.75;;;3.35;;
77866;SDS011;67271;59.120;37.970;2023-07-24T05:56:00;11.80;;;2.58;;
77866;SDS011;67271;59.120;37.970;2023-07-24T05:58:26;4.50;;;2.50;;
77866;SDS011;67271;59.120;37.970;2023-07-24T06:00:53;3.55;;;2.40;;
77866;SDS011;67271;59.120;37.970;2023-07-24T06:03:21;3.28;;;2.28;;
77866;SDS011;67271;59.120;37.970;2023-07-24T06:05:51;3.10;;;2.13;;
77866;SDS011;67271;59.120;37.970;2023-07-24T06:08:19;4.60;;;2.15;;
77866;SDS011;67271;59.120;37.970;2023-07-24T06:10:46;2.92;;;2.15;;
77866;SDS011;67271;59.120;37.970;2023-07-24T06:13:15;4.45;;;2.50;;
77866;SDS011;67271;59.120;37.970;2023-07-24T06:15:46;5.22;;;3.08;;
77866;SDS011;67271;59.120;37.970;2023-07-24T06:18:14;6.05;;;3.20;;
77866;SDS011;67271;59.120;37.970;2023-07-24T06:20:40;7.30;;;3.47;;
77866;SDS011;67271;59.120;37.970;2023-07-24T06:23:06;6.43;;;3.03;;
77866;SDS011;67271;59.120;37.970;2023-07-24T06:25:32;5.07;;;3.05;;
77866;SDS011;67271;59.120;37.970;2023-07-24T06:27:58;8.15;;;2.70;;
77866;SDS011;67271;59.120;37.970;2023-07-24T06:30:25;4.47;;;2.60;;
77866;SDS011;67271;59.120;37.970;2023-07-24T06:32:51;2.72;;;2.38;;
77866;SDS011;67271;59.120;37.970;2023-07-24T06:35:17;6.53;;;2.53;;
77866;SDS011;67271;59.120;37.970;2023-07-24T06:37:43;6.78;;;2.47;;
77866;SDS011;67271;59.120;37.970;2023-07-24T06:40:12;5.15;;;2.45;;
77866;SDS011;67271;59.120;37.970;2023-07-24T06:42:38;4.53;;;2.30;;
77866;SDS011;67271;59.120;37.970;2023-07-24T06:45:04;4.38;;;1.95;;
77866;SDS011;67271;59.120;37.970;2023-07-24T06:47:31;4.07;;;1.88;;
77866;SDS011;67271;59.120;37.970;2023-07-24T06:49:57;2.80;;;2.13;;
77866;SDS011;67271;59.120;37.970;2023-07-24T06:52:23;9.05;;;2.38;;
77866;SDS011;67271;59.120;37.970;2023-07-24T06:54:49;2.72;;;2.00;;
77866;SDS011;67271;59.120;37.970;2023-07-24T06:57:15;3.72;;;2.45;;
77866;SDS011;67271;59.120;37.970;2023-07-24T06:59:41;2.83;;;1.80;;
77866;SDS011;67271;59.120;37.970;2023-07-24T07:02:07;4.10;;;1.70;;
77866;SDS011;67271;59.120;37.970;2023-07-24T07:04:33;2.40;;;1.88;;
77866;SDS011;67271;59.120;37.970;2023-07-24T07:06:58;4.88;;;1.90;;
77866;SDS011;67271;59.120;37.970;2023-07-24T07:09:24;2.90;;;1.58;;
77866;SDS011;67271;59.120;37.970;2023-07-24T07:11:50;2.63;;;1.80;;
77866;SDS011;67271;59.120;37.970;2023-07-24T07:14:16;2.17;;;1.80;;
77866;SDS011;67271;59.120;37.970;2023-07-24T07:16:42;3.97;;;1.60;;
77866;SDS011;67271;59.120;37.970;2023-07-24T07:19:09;7.72;;;1.80;;
77866;SDS011;67271;59.120;37.970;2023-07-24T07:21:36;2.70;;;1.70;;
77866;SDS011;67271;59.120;37.970;2023-07-24T07:24:02;2.38;;;1.77;;
77866;SDS011;67271;59.120;37.970;2023-07-24T07:26:28;2.17;;;1.67;;
77866;SDS011;67271;59.120;37.970;2023-07-24T07:28:55;2.45;;;1.98;;
77866;SDS011;67271;59.120;37.970;2023-07-24T07:31:21;2.50;;;1.80;;
77866;SDS011;67271;59.120;37.970;2023-07-24T07:33:47;6.55;;;2.22;;
77866;SDS011;67271;59.120;37.970;2023-07-24T07:36:13;3.70;;;1.70;;
77866;SDS011;67271;59.120;37.970;2023-07-24T07:38:39;2.90;;;1.80;;
77866;SDS011;67271;59.120;37.970;2023-07-24T07:41:05;3.05;;;1.90;;
77866;SDS011;67271;59.120;37.970;2023-07-24T07:43:34;5.40;;;2.00;;
77866;SDS011;67271;59.120;37.970;2023-07-24T07:46:02;3.03;;;1.95;;
77866;SDS011;67271;59.120;37.970;2023-07-24T07:48:28;2.38;;;2.03;;
77866;SDS011;67271;59.120;37.970;2023-07-24T07:50:54;3.30;;;1.85;;
77866;SDS011;67271;59.120;37.970;2023-07-24T07:53:20;3.88;;;1.90;;
77866;SDS011;67271;59.120;37.970;2023-07-24T07:55:45;2.97;;;2.13;;
77866;SDS011;67271;59.120;37.970;2023-07-24T07:58:11;2.25;;;1.70;;
77866;SDS011;67271;59.120;37.970;2023-07-24T08:00:37;4.82;;;2.17;;
77866;SDS011;67271;59.120;37.970;2023-07-24T08:03:05;8.27;;;2.03;;
77866;SDS011;67271;59.120;37.970;2023-07-24T08:05:31;5.75;;;1.80;;
77866;SDS011;67271;59.120;37.970;2023-07-24T08:07:57;3.33;;;1.73;;
77866;SDS011;67271;59.120;37.970;2023-07-24T08:10:23;1.75;;;1.50;;
77866;SDS011;67271;59.120;37.970;2023-07-24T08:12:52;2.08;;;1.58;;
77866;SDS011;67271;59.120;37.970;2023-07-24T08:15:17;2.05;;;1.70;;
77866;SDS011;67271;59.120;37.970;2023-07-24T08:17:43;2.00;;;1.58;;
77866;SDS011;67271;59.120;37.970;2023-07-24T08:20:09;2.15;;;1.60;;
77866;SDS011;67271;59.120;37.970;2023-07-24T08:22:35;3.20;;;1.95;;
77866;SDS011;67271;59.120;37.970;2023-07-24T08:25:02;2.85;;;1.80;;
77866;SDS011;67271;59.120;37.970;2023-07-24T08:27:28;2.47;;;1.70;;
77866;SDS011;67271;59.120;37.970;2023-07-24T08:29:55;2.42;;;1.60;;
77866;SDS011;67271;59.120;37.970;2023-07-24T08:32:20;2.15;;;1.70;;
77866;SDS011;67271;59.120;37.970;2023-07-24T08:34:46;4.88;;;1.90;;
77866;SDS011;67271;59.120;37.970;2023-07-24T08:37:12;2.58;;;1.83;;
77866;SDS011;67271;59.120;37.970;2023-07-24T08:39:38;4.72;;;2.05;;
77866;SDS011;67271;59.120;37.970;2023-07-24T08:42:13;2.78;;;1.77;;
77866;SDS011;67271;59.120;37.970;2023-07-24T08:44:39;3.85;;;1.70;;
77866;SDS011;67271;59.120;37.970;2023-07-24T08:47:09;2.85;;;1.90;;
77866;SDS011;67271;59.120;37.970;2023-07-24T08:49:36;1.88;;;1.65;;
77866;SDS011;67271;59.120;37.970;2023-07-24T08:52:05;1.70;;;1.42;;
77866;SDS011;67271;59.120;37.970;2023-07-24T08:54:32;2.83;;;1.70;;
77866;SDS011;67271;59.120;37.970;2023-07-24T08:57:02;3.05;;;1.92;;
77866;SDS011;67271;59.120;37.970;2023-07-24T08:59:28;2.00;;;1.60;;
77866;SDS011;67271;59.120;37.970;2023-07-24T09:01:55;3.13;;;1.52;;
77866;SDS011;67271;59.120;37.970;2023-07-24T09:04:21;3.20;;;1.75;;
77866;SDS011;67271;59.120;37.970;2023-07-24T09:06:47;1.50;;;1.40;;
77866;SDS011;67271;59.120;37.970;2023-07-24T09:09:14;2.15;;;1.60;;
77866;SDS011;67271;59.120;37.970;2023-07-24T09:11:51;2.10;;;1.58;;
77866;SDS011;67271;59.120;37.970;2023-07-24T09:14:24;3.28;;;1.50;;
77866;SDS011;67271;59.120;37.970;2023-07-24T09:17:04;3.47;;;2.15;;
77866;SDS011;67271;59.120;37.970;2023-07-24T09:19:35;2.40;;;1.80;;
77866;SDS011;67271;59.120;37.970;2023-07-24T09:22:09;3.60;;;1.95;;
77866;SDS011;67271;59.120;37.970;2023-07-24T09:24:36;5.88;;;3.00;;
77866;SDS011;67271;59.120;37.970;2023-07-24T09:27:04;8.40;;;3.33;;
77866;SDS011;67271;59.120;37.970;2023-07-24T09:29:31;15.65;;;5.13;;
77866;SDS011;67271;59.120;37.970;2023-07-24T09:32:01;10.10;;;3.67;;
77866;SDS011;67271;59.120;37.970;2023-07-24T09:34:28;14.02;;;4.00;;
77866;SDS011;67271;59.120;37.970;2023-07-24T09:36:54;14.02;;;4.55;;
77866;SDS011;67271;59.120;37.970;2023-07-24T09:39:26;10.75;;;4.55;;
77866;SDS011;67271;59.120;37.970;2023-07-24T09:41:52;10.30;;;3.75;;
77866;SDS011;67271;59.120;37.970;2023-07-24T09:44:20;9.30;;;3.42;;
77866;SDS011;67271;59.120;37.970;2023-07-24T09:46:46;14.27;;;4.53;;
77866;SDS011;67271;59.120;37.970;2023-07-24T09:49:12;5.47;;;2.33;;
77866;SDS011;67271;59.120;37.970;2023-07-24T09:51:38;11.98;;;2.65;;
77866;SDS011;67271;59.120;37.970;2023-07-24T09:54:06;28.35;;;9.55;;
77866;SDS011;67271;59.120;37.970;2023-07-24T09:56:36;27.55;;;9.82;;
77866;SDS011;67271;59.120;37.970;2023-07-24T09:59:02;28.17;;;11.38;;
77866;SDS011;67271;59.120;37.970;2023-07-24T10:01:30;31.75;;;12.50;;
77866;SDS011;67271;59.120;37.970;2023-07-24T10:03:58;38.67;;;12.65;;
77866;SDS011;67271;59.120;37.970;2023-07-24T10:06:24;27.83;;;9.63;;
77866;SDS011;67271;59.120;37.970;2023-07-24T10:08:52;30.05;;;11.13;;
77866;SDS011;67271;59.120;37.970;2023-07-24T10:11:19;37.08;;;13.82;;
77866;SDS011;67271;59.120;37.970;2023-07-24T10:13:47;16.10;;;7.95;;
77866;SDS011;67271;59.120;37.970;2023-07-24T10:16:13;7.15;;;3.55;;
77866;SDS011;67271;59.120;37.970;2023-07-24T10:18:46;3.92;;;2.20;;
77866;SDS011;67271;59.120;37.970;2023-07-24T10:21:12;3.50;;;1.95;;
77866;SDS011;67271;59.120;37.970;2023-07-24T10:23:42;2.85;;;1.55;;
77866;SDS011;67271;59.120;37.970;2023-07-24T10:26:09;2.92;;;1.80;;
77866;SDS011;67271;59.120;37.970;2023-07-24T10:28:46;2.20;;;1.67;;
77866;SDS011;67271;59.120;37.970;2023-07-24T10:31:21;3.17;;;1.60;;
77866;SDS011;67271;59.120;37.970;2023-07-24T10:33:48;1.67;;;1.20;;
77866;SDS011;67271;59.120;37.970;2023-07-24T10:36:19;6.85;;;1.42;;
77866;SDS011;67271;59.120;37.970;2023-07-24T10:38:51;2.30;;;1.52;;
77866;SDS011;67271;59.120;37.970;2023-07-24T10:41:18;2.80;;;1.52;;
77866;SDS011;67271;59.120;37.970;2023-07-24T10:43:45;11.70;;;1.65;;
77866;SDS011;67271;59.120;37.970;2023-07-24T10:46:22;1.02;;;1.02;;
77866;SDS011;67271;59.120;37.970;2023-07-24T10:48:50;1.63;;;1.08;;
77866;SDS011;67271;59.120;37.970;2023-07-24T10:51:16;2.08;;;1.50;;
77866;SDS011;67271;59.120;37.970;2023-07-24T10:53:46;3.38;;;1.60;;
77866;SDS011;67271;59.120;37.970;2023-07-24T10:56:14;1.98;;;1.63;;
77866;SDS011;67271;59.120;37.970;2023-07-24T10:58:40;2.22;;;1.50;;
77866;SDS011;67271;59.120;37.970;2023-07-24T11:01:07;5.20;;;1.92;;
77866;SDS011;67271;59.120;37.970;2023-07-24T11:03:38;3.28;;;1.70;;
77866;SDS011;67271;59.120;37.970;2023-07-24T11:06:10;1.73;;;1.50;;
77866;SDS011;67271;59.120;37.970;2023-07-24T11:08:39;2.97;;;1.70;;
77866;SDS011;67271;59.120;37.970;2023-07-24T11:11:05;1.67;;;1.38;;
77866;SDS011;67271;59.120;37.970;2023-07-24T11:13:32;1.95;;;1.50;;
77866;SDS011;67271;59.120;37.970;2023-07-24T11:16:06;6.43;;;2.03;;
77866;SDS011;67271;59.120;37.970;2023-07-24T11:18:33;4.75;;;1.73;;
77866;SDS011;67271;59.120;37.970;2023-07-24T11:21:11;4.75;;;1.70;;
77866;SDS011;67271;59.120;37.970;2023-07-24T11:23:37;2.47;;;1.85;;
77866;SDS011;67271;59.120;37.970;2023-07-24T11:26:03;4.57;;;1.77;;
77866;SDS011;67271;59.120;37.970;2023-07-24T11:28:38;2.17;;;1.80;;
77866;SDS011;67271;59.120;37.970;2023-07-24T11:31:05;6.03;;;1.50;;
77866;SDS011;67271;59.120;37.970;2023-07-24T11:33:31;1.83;;;1.42;;
77866;SDS011;67271;59.120;37.970;2023-07-24T11:35:57;1.90;;;1.48;;
77866;SDS011;67271;59.120;37.970;2023-07-24T11:38:24;3.03;;;1.73;;
77866;SDS011;67271;59.120;37.970;2023-07-24T11:40:50;3.75;;;1.45;;
77866;SDS011;67271;59.120;37.970;2023-07-24T11:43:20;2.20;;;1.55;;
77866;SDS011;67271;59.120;37.970;2023-07-24T11:48:17;2.55;;;1.65;;
77866;SDS011;67271;59.120;37.970;2023-07-24T11:50:49;2.28;;;1.70;;
77866;SDS011;67271;59.120;37.970;2023-07-24T11:53:19;3.95;;;1.63;;
77866;SDS011;67271;59.120;37.970;2023-07-24T11:55:53;3.30;;;2.00;;
77866;SDS011;67271;59.120;37.970;2023-07-24T11:58:20;1.45;;;1.30;;
77866;SDS011;67271;59.120;37.970;2023-07-24T12:00:48;2.38;;;1.40;;
77866;SDS011;67271;59.120;37.970;2023-07-24T12:03:20;2.33;;;1.58;;
77866;SDS011;67271;59.120;37.970;2023-07-24T12:05:53;2.30;;;1.60;;
77866;SDS011;67271;59.120;37.970;2023-07-24T12:08:20;1.90;;;1.60;;
77866;SDS011;67271;59.120;37.970;2023-07-24T12:10:48;1.48;;;1.23;;
77866;SDS011;67271;59.120;37.970;2023-07-24T12:13:14;2.55;;;2.05;;
77866;SDS011;67271;59.120;37.970;2023-07-24T12:15:40;2.05;;;1.65;;
77866;SDS011;67271;59.120;37.970;2023-07-24T12:18:06;2.45;;;1.90;;
77866;SDS011;67271;59.120;37.970;2023-07-24T12:20:34;3.47;;;1.60;;
77866;SDS011;67271;59.120;37.970;2023-07-24T12:23:00;4.43;;;2.08;;
77866;SDS011;67271;59.120;37.970;2023-07-24T12:25:26;2.28;;;1.55;;
77866;SDS011;67271;59.120;37.970;2023-07-24T12:27:51;2.63;;;1.58;;
77866;SDS011;67271;59.120;37.970;2023-07-24T12:30:17;2.40;;;1.63;;
77866;SDS011;67271;59.120;37.970;2023-07-24T12:32:44;4.25;;;1.50;;
77866;SDS011;67271;59.120;37.970;2023-07-24T12:35:10;4.18;;;2.00;;
77866;SDS011;67271;59.120;37.970;2023-07-24T12:37:36;4.75;;;2.00;;
77866;SDS011;67271;59.120;37.970;2023-07-24T12:40:04;1.67;;;1.55;;
77866;SDS011;67271;59.120;37.970;2023-07-24T12:42:31;3.25;;;1.70;;
77866;SDS011;67271;59.120;37.970;2023-07-24T12:44:56;3.20;;;1.80;;
77866;SDS011;67271;59.120;37.970;2023-07-24T12:47:23;2.10;;;1.38;;
77866;SDS011;67271;59.120;37.970;2023-07-24T12:49:49;1.48;;;1.27;;
77866;SDS011;67271;59.120;37.970;2023-07-24T12:52:17;1.58;;;1.33;;
77866;SDS011;67271;59.120;37.970;2023-07-24T12:54:43;1.95;;;1.33;;
77866;SDS011;67271;59.120;37.970;2023-07-24T12:57:08;1.52;;;1.20;;
77866;SDS011;67271;59.120;37.970;2023-07-24T12:59:34;1.55;;;1.40;;
77866;SDS011;67271;59.120;37.970;2023-07-24T13:02:00;3.45;;;1.30;;
77866;SDS011;67271;59.120;37.970;2023-07-24T13:04:26;2.25;;;1.30;;
77866;SDS011;67271;59.120;37.970;2023-07-24T13:06:52;3.38;;;1.55;;
77866;SDS011;67271;59.120;37.970;2023-07-24T13:09:19;1.48;;;1.30;;
77866;SDS011;67271;59.120;37.970;2023-07-24T13:11:45;5.90;;;1.77;;
77866;SDS011;67271;59.120;37.970;2023-07-24T13:14:14;2.05;;;1.50;;
77866;SDS011;67271;59.120;37.970;2023-07-24T13:16:40;1.60;;;1.48;;
77866;SDS011;67271;59.120;37.970;2023-07-24T13:19:06;2.33;;;1.75;;
77866;SDS011;67271;59.120;37.970;2023-07-24T13:21:32;4.85;;;1.85;;
77866;SDS011;67271;59.120;37.970;2023-07-24T13:23:58;3.63;;;1.60;;
77866;SDS011;67271;59.120;37.970;2023-07-24T13:26:24;2.78;;;1.70;;
77866;SDS011;67271;59.120;37.970;2023-07-24T13:28:50;4.13;;;1.70;;
77866;SDS011;67271;59.120;37.970;2023-07-24T13:31:17;4.85;;;1.80;;
77866;SDS011;67271;59.120;37.970;2023-07-24T13:33:44;3.30;;;2.22;;
77866;SDS011;67271;59.120;37.970;2023-07-24T13:36:11;4.40;;;1.90;;
77866;SDS011;67271;59.120;37.970;2023-07-24T13:38:37;9.80;;;2.28;;
77866;SDS011;67271;59.120;37.970;2023-07-24T13:41:03;3.58;;;1.17;;
77866;SDS011;67271;59.120;37.970;2023-07-24T13:43:32;3.58;;;1.80;;
77866;SDS011;67271;59.120;37.970;2023-07-24T13:45:58;2.17;;;1.60;;
77866;SDS011;67271;59.120;37.970;2023-07-24T13:48:26;2.60;;;1.75;;
77866;SDS011;67271;59.120;37.970;2023-07-24T13:50:52;4.53;;;2.63;;
77866;SDS011;67271;59.120;37.970;2023-07-24T13:53:18;2.70;;;1.85;;
77866;SDS011;67271;59.120;37.970;2023-07-24T13:55:44;3.15;;;1.48;;
77866;SDS011;67271;59.120;37.970;2023-07-24T13:58:10;2.45;;;1.55;;
77866;SDS011;67271;59.120;37.970;2023-07-24T14:00:37;4.88;;;1.77;;
77866;SDS011;67271;59.120;37.970;2023-07-24T14:03:03;2.08;;;1.52;;
77866;SDS011;67271;59.120;37.970;2023-07-24T14:05:28;1.98;;;1.60;;
77866;SDS011;67271;59.120;37.970;2023-07-24T14:07:54;4.32;;;1.65;;
77866;SDS011;67271;59.120;37.970;2023-07-24T14:10:20;1.50;;;1.40;;
77866;SDS011;67271;59.120;37.970;2023-07-24T14:12:46;1.15;;;1.05;;
77866;SDS011;67271;59.120;37.970;2023-07-24T14:15:12;2.80;;;1.60;;
77866;SDS011;67271;59.120;37.970;2023-07-24T14:17:38;3.50;;;1.20;;
77866;SDS011;67271;59.120;37.970;2023-07-24T14:20:04;4.55;;;1.60;;
77866;SDS011;67271;59.120;37.970;2023-07-24T14:22:30;2.63;;;1.73;;
77866;SDS011;67271;59.120;37.970;2023-07-24T14:24:56;4.30;;;1.80;;
77866;SDS011;67271;59.120;37.970;2023-07-24T14:27:22;1.38;;;1.27;;
77866;SDS011;67271;59.120;37.970;2023-07-24T14:29:48;2.47;;;1.45;;
77866;SDS011;67271;59.120;37.970;2023-07-24T14:32:14;3.65;;;1.80;;
77866;SDS011;67271;59.120;37.970;2023-07-24T14:34:41;2.97;;;1.75;;
77866;SDS011;67271;59.120;37.970;2023-07-24T14:37:07;3.13;;;1.67;;
77866;SDS011;67271;59.120;37.970;2023-07-24T14:39:33;3.05;;;1.50;;